If you wish to contribute or participate in the discussions about articles you are invited to join SKYbrary as a registered user

 Actions

Tours-Val-de-Loire Airport

From SKYbrary Wiki

LFOT
Airport
ICAO: LFOT – IATA: TUF
Summary
Name Tours-Val-de-Loire Airport
Region Europe
Territory France FR.gif
Location , Centre
Serving Tours
Elevation 108.814 m
357 ft
357 ft108.814 m
Type large airport
Coordinates 47° 25' 56.00" N, 0° 43' 39.38" E
Runways
Designator Length Width Surface ROPS
2/20 2404 m7,887.139 ft
45 m147.638 ft
CON yes/yes


METAR
Observation LFOT 250700Z AUTO 08006KT CAVOK 21/12 Q1017 NOSIG
Station Tours
Date/Time 25 August 2019 07:00:00
Wind direction 80°
Wind speed 06 kts
Lowest cloud amount clouds and visibility OK
Temperature 21°C
Dew point 12°C
Humidity 56%
QNH 1017 hPa
Weather condition n/a